METAR Data
IDs: Format: Raw Decoded Include TAF

Data at: 0103 UTC 06 Dec 2019

KHVE 060055Z AUTO 03005KT 10SM OVC060 05/02 A3021 RMK AO2
KHVE 060035Z AUTO 05005KT 10SM BKN060 04/02 A3020 RMK AO2
KHVE 060015Z AUTO 00000KT 10SM CLR 07/03 A3020 RMK AO2
KHVE 052355Z AUTO 00000KT 10SM CLR 08/02 A3020 RMK AO2
KHVE 052335Z AUTO 00000KT 10SM CLR 09/02 A3019 RMK AO2
KHVE 052315Z AUTO 00000KT 10SM CLR 09/02 A3018 RMK AO2
KHVE 052255Z AUTO 00000KT 10SM CLR 09/02 A3018 RMK AO2
KHVE 052235Z AUTO 00000KT 10SM CLR 09/03 A3016 RMK AO2
KHVE 052215Z AUTO 00000KT 10SM CLR 09/03 A3016 RMK AO2
KHVE 052155Z AUTO 00000KT 10SM CLR 09/02 A3015 RMK AO2
KHVE 052135Z AUTO 00000KT 10SM CLR 08/02 A3014 RMK AO2
KHVE 052115Z AUTO 00000KT 10SM CLR 08/03 A3014 RMK AO2
KHVE 052055Z AUTO 00000KT 10SM CLR 08/03 A3014 RMK AO2
KHVE 052035Z AUTO 00000KT 10SM CLR 07/03 A3013 RMK AO2
KHVE 052015Z AUTO 00000KT 10SM CLR 07/03 A3013 RMK AO2
KHVE 051955Z AUTO 00000KT 10SM CLR 06/03 A3013 RMK AO2
KHVE 051935Z AUTO 33004KT 10SM SCT005 06/03 A3014 RMK AO2
KHVE 051915Z AUTO 34003KT 10SM BKN003 05/03 A3013 RMK AO2
KHVE 051855Z AUTO 00000KT 10SM OVC003 04/03 A3014 RMK AO2
KHVE 051835Z AUTO 00000KT 3SM OVC003 03/03 A3015 RMK AO2
KHVE 051815Z AUTO 30003KT 3SM OVC003 03/02 A3015 RMK AO2
KHVE 051755Z AUTO 30003KT 3/4SM OVC003 03/02 A3015 RMK AO2
KHVE 051735Z AUTO 00000KT 3/4SM OVC003 02/02 A3014 RMK AO2
KHVE 051715Z AUTO 00000KT 1SM OVC003 02/02 A3014 RMK AO2
KHVE 051655Z AUTO 00000KT 7SM OVC003 02/02 A3013 RMK AO2
KHVE 051635Z AUTO 00000KT 10SM OVC003 02/02 A3011 RMK AO2
KHVE 051615Z AUTO 17003KT 10SM BKN003 02/02 A3010 RMK AO2
KHVE 051555Z AUTO 00000KT 10SM SCT080 02/02 A3009 RMK AO2
KHVE 051535Z AUTO 04003KT 5SM SCT080 01/01 A3009 RMK AO2
KHVE 051515Z AUTO 00000KT 5SM CLR 00/00 A3008 RMK AO2
KHVE 051455Z AUTO 00000KT 7SM CLR 00/00 A3006 RMK AO2
KHVE 051435Z AUTO 00000KT 10SM CLR 00/00 A3005 RMK AO2
KHVE 051415Z AUTO 22003KT 10SM SCT090 01/01 A3004 RMK AO2
KHVE 051355Z AUTO 00000KT 10SM CLR 01/01 A3003 RMK AO2
KHVE 051335Z AUTO 35004KT 10SM SCT041 SCT050 BKN065 01/01 A3002 RMK AO2
KHVE 051315Z AUTO 33005KT 10SM SCT065 SCT075 BKN100 01/01 A3001 RMK AO2
KHVE 051255Z AUTO 00000KT 10SM SCT075 BKN120 01/01 A3001 RMK AO2
KHVE 051235Z AUTO 00000KT 10SM SCT075 BKN120 01/01 A3000 RMK AO2
KHVE 051215Z AUTO 33004KT 7SM SCT120 01/01 A2999 RMK AO2
KHVE 051155Z AUTO 00000KT 5SM CLR 01/01 A2999 RMK AO2
KHVE 051135Z AUTO 00000KT 4SM SCT090 SCT110 00/00 A2999 RMK AO2
KHVE 051115Z AUTO 00000KT 7SM BKN100 BKN120 00/00 A2999 RMK AO2
KHVE 051055Z AUTO 00000KT 10SM SCT090 BKN110 01/01 A2999 RMK AO2
KHVE 051035Z AUTO 00000KT 7SM SCT019 BKN120 01/01 A2998 RMK AO2
KHVE 051015Z AUTO 14003KT 7SM SCT019 BKN110 01/01 A2998 RMK AO2
KHVE 050955Z AUTO 11004KT 10SM SCT019 SCT080 SCT120 01/01 A2999 RMK AO2
KHVE 050935Z AUTO 00000KT 10SM BKN023 BKN080 01/01 A2998 RMK AO2
KHVE 050915Z AUTO 00000KT 10SM OVC023 02/02 A2999 RMK AO2
KHVE 050855Z AUTO 00000KT 10SM SCT009 OVC025 02/01 A2998 RMK AO2
KHVE 050835Z AUTO 00000KT 10SM SCT009 BKN020 OVC025 02/02 A2998 RMK AO2
KHVE 050815Z AUTO 00000KT 10SM SCT020 OVC031 02/01 A2997 RMK AO2
KHVE 050755Z AUTO 00000KT 10SM SCT008 SCT023 OVC031 02/01 A2998 RMK AO2
KHVE 050735Z AUTO 00000KT 10SM OVC008 02/01 A2997 RMK AO2
KHVE 050715Z AUTO 00000KT 10SM OVC010 02/02 A2999 RMK AO2
KHVE 050655Z AUTO 00000KT 10SM OVC010 02/01 A2997 RMK AO2
KHVE 050635Z AUTO 00000KT 10SM OVC010 02/01 A2999 RMK AO2
KHVE 050615Z AUTO 00000KT 10SM OVC010 02/01 A2999 RMK AO2
KHVE 050555Z AUTO 00000KT 10SM OVC010 02/01 A2999 RMK AO2
KHVE 050535Z AUTO 00000KT 10SM OVC010 02/01 A2999 RMK AO2
KHVE 050515Z AUTO 00000KT 10SM OVC012 02/01 A3000 RMK AO2
KHVE 050455Z AUTO 00000KT 10SM OVC012 03/01 A3000 RMK AO2
KHVE 050435Z AUTO 00000KT 10SM BKN014 BKN020 OVC034 03/01 A3001 RMK AO2
KHVE 050415Z AUTO 33004KT 10SM OVC025 03/01 A3001 RMK AO2
KHVE 050355Z AUTO 28004KT 10SM OVC025 04/01 A3001 RMK AO2
KHVE 050335Z AUTO 00000KT 10SM OVC030 04/01 A3000 RMK AO2
KHVE 050315Z AUTO 00000KT 10SM OVC034 04/01 A3000 RMK AO2
KHVE 050255Z AUTO 00000KT 10SM BKN036 OVC042 04/01 A3001 RMK AO2
KHVE 050235Z AUTO 33003KT 10SM OVC039 04/00 A3001 RMK AO2
KHVE 050215Z AUTO 00000KT 10SM OVC041 05/00 A3001 RMK AO2
KHVE 050155Z AUTO 00000KT 10SM OVC043 05/01 A3003 RMK AO2
KHVE 050135Z AUTO 00000KT 10SM OVC043 05/00 A3003 RMK AO2
KHVE 050115Z AUTO 00000KT 10SM OVC043 05/00 A3003 RMK AO2
KHVE 050055Z AUTO 36003KT 10SM OVC045 05/00 A3003 RMK AO2
KHVE 050035Z AUTO 36004KT 10SM OVC045 05/00 A3003 RMK AO2
KHVE 050015Z AUTO 34003KT 10SM BKN047 OVC055 05/00 A3004 RMK AO2
KHVE 042355Z AUTO 36003KT 10SM BKN049 BKN055 OVC110 06/00 A3004 RMK AO2
KHVE 042335Z AUTO 36003KT 10SM OVC110 06/00 A3005 RMK AO2
KHVE 042315Z AUTO 01003KT 10SM OVC100 06/00 A3005 RMK AO2
KHVE 042255Z AUTO 36004KT 10SM SCT046 SCT075 OVC100 06/00 A3006 RMK AO2
KHVE 042235Z AUTO 35004KT 10SM SCT042 BKN080 06/00 A3006 RMK AO2
KHVE 042215Z AUTO 36003KT 10SM SCT042 SCT090 06/00 A3007 RMK AO2
KHVE 042155Z AUTO 36003KT 10SM BKN090 06/00 A3007 RMK AO2
KHVE 042135Z AUTO 34003KT 10SM SCT090 06/M01 A3008 RMK AO2
KHVE 042115Z AUTO 00000KT 10SM CLR 06/M01 A3008 RMK AO2
KHVE 042055Z AUTO 02004KT 10SM CLR 06/00 A3009 RMK AO2
KHVE 042035Z AUTO 31003KT 10SM CLR 06/M01 A3011 RMK AO2
KHVE 042015Z AUTO 00000KT 10SM CLR 06/M01 A3012 RMK AO2
KHVE 041955Z AUTO 00000KT 10SM CLR 06/M01 A3013 RMK AO2
KHVE 041935Z AUTO 01004KT 10SM CLR 06/00 A3014 RMK AO2
KHVE 041915Z AUTO 00000KT 10SM CLR 05/00 A3016 RMK AO2
KHVE 041855Z AUTO 35003KT 10SM CLR 05/00 A3017 RMK AO2
KHVE 041835Z AUTO 00000KT 10SM CLR 03/00 A3017 RMK AO2
KHVE 041815Z AUTO 00000KT 10SM CLR 03/00 A3019 RMK AO2
KHVE 041755Z AUTO 00000KT 10SM CLR 03/00 A3020 RMK AO2
KHVE 041735Z AUTO 00000KT 10SM CLR 02/00 A3020 RMK AO2
KHVE 041715Z AUTO 00000KT 10SM CLR 01/00 A3021 RMK AO2
KHVE 041655Z AUTO 00000KT 10SM CLR 00/00 A3021 RMK AO2
KHVE 041635Z AUTO 00000KT 10SM CLR 00/00 A3021 RMK AO2
KHVE 041615Z AUTO 00000KT 10SM CLR 00/00 A3021 RMK AO2
KHVE 041555Z AUTO 00000KT 10SM CLR M01/M01 A3021 RMK AO2
KHVE 041535Z AUTO 00000KT 7SM CLR M01/M01 A3021 RMK AO2
KHVE 041515Z AUTO 00000KT 10SM CLR M01/M01 A3020 RMK AO2
KHVE 041455Z AUTO 00000KT 10SM CLR M03/M03 A3021 RMK AO2
KHVE 041435Z AUTO 00000KT 10SM CLR M02/M02 A3021 RMK AO2
KHVE 041415Z AUTO 00000KT 10SM CLR M02/M02 A3021 RMK AO2
KHVE 041355Z AUTO 00000KT 10SM CLR M02/M02 A3020 RMK AO2
KHVE 041335Z AUTO 00000KT 10SM CLR M02/M02 A3020 RMK AO2
KHVE 041315Z AUTO 00000KT 10SM CLR M01/M01 A3021 RMK AO2